Airfield :
LOGIN :

Register | Disclaimer

   EN    FR    IT 

 










Legend :    VFR   Marginal VFR   IFR   Intensive IFR   Very Intensive IFR
Visi :
Ceiling :
>= 8 km
>= 3000ft
5 to 8 km
1000 to 3000 ft
1500m to 5 km
500 to 1000 ft
800 to 1500m
200 to 500 ft
< 800m
< 200 ft
Symbols :   Thunderstorms  Fog  Heavy snow  Heavy precipitations  Wind > 20 kt
SIGMETs :     Misc.  Thunderstorms  Icing  Turbulence  Mountain Waves  Volcanic Ashes






- Airport Elevation : 86 ft


LERT - Rota Navy

CURRENT METAR :
  • 232000Z 23014KT 9999 BKN020 16/13 Q1020 NOSIG

EXPIRED METARs :
  • 231930Z 23013KT 9999 BKN020 16/13 Q1020 NOSIG
  • 231900Z 23012KT 8000 -RA FEW015 BKN022 15/13 Q1021 NOSIG
  • 231830Z 24017KT 8000 -RA FEW017 BKN023 14/13 Q1021 NOSIG
  • 231800Z 23013KT 9999 FEW020 BKN029 15/12 Q1020 NOSIG
  • 231730Z 23013KT 9999 FEW025 BKN033 16/12 Q1020 NOSIG

TAF TAF LERT
Valid from the 23 at 15:00 until the 24 at 15:00 UTC


231400Z 2315/2415 25012KT 9999 FEW020 SCT035 TX17/2315Z TN14/2406Z
PROB30
TEMPO 2315/2415 4000 RA
PROB40
TEMPO 2318/2403 24015G25KT



MET'MAP, your aeronautical weather chart ! - Copyright ORBIFLY December 2007 - Disclaimer

ORBIFLY MET'MAP TEAM :

Programming & Development : Alexandra Zaïnal
Concept & original design : Baudouin d'Aumeries
Assistance for programming : Marc-Olivier Méhu
Technical & hardware support : Manuel Goepfert

Contact : metmap@orbifly.com




SOURCES & CREDITS :

   NOAA